Terminal Aerodrome Forecast
Issued by NWS

Home | Current Version | Previous Version | Text Only | Print | Product List | Glossary On
Versions: 1 2 3 4 5 6 7 8 9 10 11 12 13 14 15 16 17 18 19
000
FTUS46 KSTO 172300
TAFMHR
TAF
KMHR 172323Z 1800/1824 15009KT P6SM VCSH SCT025 OVC050
     FM180300 16007KT 6SM -SHRA SCT015 OVC025
      TEMPO 1804/1808 3SM RA BR SCT009 OVC015
     FM181400 VRB05KT 3SM BR VCSH BKN010
     FM182000 15007KT P6SM BKN050=

USA.gov is the U.S. government's official web portal to all federal, state and local government web resources and services.